sensor_id;sensor_type;location;lat;lon;timestamp;P1;durP1;ratioP1;P2;durP2;ratioP2
12135;SDS011;6131;56.420;15.548;2023-03-24T00:01:50;11.40;;;2.47;;
12135;SDS011;6131;56.420;15.548;2023-03-24T00:04:17;11.03;;;2.40;;
12135;SDS011;6131;56.420;15.548;2023-03-24T00:06:43;11.47;;;2.07;;
12135;SDS011;6131;56.420;15.548;2023-03-24T00:09:09;14.03;;;3.00;;
12135;SDS011;6131;56.420;15.548;2023-03-24T00:11:35;10.37;;;2.37;;
12135;SDS011;6131;56.420;15.548;2023-03-24T00:14:02;15.73;;;2.83;;
12135;SDS011;6131;56.420;15.548;2023-03-24T00:16:29;12.87;;;2.30;;
12135;SDS011;6131;56.420;15.548;2023-03-24T00:18:58;13.90;;;2.73;;
12135;SDS011;6131;56.420;15.548;2023-03-24T00:21:25;15.10;;;2.43;;
12135;SDS011;6131;56.420;15.548;2023-03-24T00:23:51;13.40;;;2.37;;
12135;SDS011;6131;56.420;15.548;2023-03-24T00:26:19;8.20;;;2.33;;
12135;SDS011;6131;56.420;15.548;2023-03-24T00:28:46;10.90;;;2.30;;
12135;SDS011;6131;56.420;15.548;2023-03-24T00:31:13;15.37;;;3.03;;
12135;SDS011;6131;56.420;15.548;2023-03-24T00:33:39;13.60;;;2.47;;
12135;SDS011;6131;56.420;15.548;2023-03-24T00:36:06;9.43;;;2.07;;
12135;SDS011;6131;56.420;15.548;2023-03-24T00:38:36;12.50;;;2.80;;
12135;SDS011;6131;56.420;15.548;2023-03-24T00:41:03;12.27;;;2.43;;
12135;SDS011;6131;56.420;15.548;2023-03-24T00:43:29;16.80;;;2.87;;
12135;SDS011;6131;56.420;15.548;2023-03-24T00:45:59;13.87;;;2.40;;
12135;SDS011;6131;56.420;15.548;2023-03-24T00:48:26;15.73;;;2.80;;
12135;SDS011;6131;56.420;15.548;2023-03-24T00:50:52;15.40;;;2.97;;
12135;SDS011;6131;56.420;15.548;2023-03-24T00:53:18;15.83;;;2.73;;
12135;SDS011;6131;56.420;15.548;2023-03-24T00:55:47;11.00;;;2.57;;
12135;SDS011;6131;56.420;15.548;2023-03-24T01:01:17;13.23;;;2.40;;
12135;SDS011;6131;56.420;15.548;2023-03-24T01:03:46;16.23;;;2.50;;
12135;SDS011;6131;56.420;15.548;2023-03-24T01:06:14;11.03;;;2.37;;
12135;SDS011;6131;56.420;15.548;2023-03-24T01:08:40;12.53;;;2.50;;
12135;SDS011;6131;56.420;15.548;2023-03-24T01:11:07;19.07;;;2.77;;
12135;SDS011;6131;56.420;15.548;2023-03-24T01:13:34;12.00;;;2.43;;
12135;SDS011;6131;56.420;15.548;2023-03-24T01:16:00;17.43;;;3.17;;
12135;SDS011;6131;56.420;15.548;2023-03-24T01:18:27;16.43;;;2.47;;
12135;SDS011;6131;56.420;15.548;2023-03-24T01:20:53;19.97;;;2.90;;
12135;SDS011;6131;56.420;15.548;2023-03-24T01:23:21;9.53;;;2.33;;
12135;SDS011;6131;56.420;15.548;2023-03-24T01:25:47;11.37;;;3.03;;
12135;SDS011;6131;56.420;15.548;2023-03-24T01:28:14;13.07;;;3.67;;
12135;SDS011;6131;56.420;15.548;2023-03-24T01:30:41;13.87;;;3.30;;
12135;SDS011;6131;56.420;15.548;2023-03-24T01:33:08;12.33;;;2.57;;
12135;SDS011;6131;56.420;15.548;2023-03-24T01:35:34;12.97;;;2.30;;
12135;SDS011;6131;56.420;15.548;2023-03-24T01:38:01;13.73;;;2.73;;
12135;SDS011;6131;56.420;15.548;2023-03-24T01:40:30;10.10;;;2.17;;
12135;SDS011;6131;56.420;15.548;2023-03-24T01:42:56;8.67;;;2.47;;
12135;SDS011;6131;56.420;15.548;2023-03-24T01:45:39;5.67;;;2.00;;
12135;SDS011;6131;56.420;15.548;2023-03-24T01:50:35;9.03;;;1.80;;
12135;SDS011;6131;56.420;15.548;2023-03-24T01:53:02;12.20;;;2.80;;
12135;SDS011;6131;56.420;15.548;2023-03-24T01:55:28;15.53;;;3.17;;
12135;SDS011;6131;56.420;15.548;2023-03-24T01:57:56;15.90;;;3.03;;
12135;SDS011;6131;56.420;15.548;2023-03-24T02:00:24;19.13;;;3.20;;
12135;SDS011;6131;56.420;15.548;2023-03-24T02:02:55;10.47;;;1.80;;
12135;SDS011;6131;56.420;15.548;2023-03-24T02:05:23;13.90;;;2.40;;
12135;SDS011;6131;56.420;15.548;2023-03-24T02:10:34;14.47;;;2.77;;
12135;SDS011;6131;56.420;15.548;2023-03-24T02:13:00;4.93;;;1.40;;
12135;SDS011;6131;56.420;15.548;2023-03-24T02:15:28;8.47;;;1.47;;
12135;SDS011;6131;56.420;15.548;2023-03-24T02:20:38;11.43;;;2.40;;
12135;SDS011;6131;56.420;15.548;2023-03-24T02:25:56;15.50;;;3.33;;
12135;SDS011;6131;56.420;15.548;2023-03-24T02:29:10;16.53;;;3.00;;
12135;SDS011;6131;56.420;15.548;2023-03-24T02:31:20;19.07;;;3.20;;
12135;SDS011;6131;56.420;15.548;2023-03-24T02:44:26;8.63;;;2.03;;
12135;SDS011;6131;56.420;15.548;2023-03-24T02:46:56;13.83;;;3.63;;
12135;SDS011;6131;56.420;15.548;2023-03-24T02:50:07;24.70;;;4.13;;
12135;SDS011;6131;56.420;15.548;2023-03-24T02:52:17;15.00;;;2.50;;
12135;SDS011;6131;56.420;15.548;2023-03-24T02:57:16;22.47;;;4.50;;
12135;SDS011;6131;56.420;15.548;2023-03-24T02:59:56;21.43;;;4.17;;
12135;SDS011;6131;56.420;15.548;2023-03-24T03:02:31;20.83;;;4.17;;
12135;SDS011;6131;56.420;15.548;2023-03-24T03:05:03;26.83;;;5.93;;
12135;SDS011;6131;56.420;15.548;2023-03-24T03:07:30;21.43;;;5.53;;
12135;SDS011;6131;56.420;15.548;2023-03-24T03:12:26;26.27;;;7.93;;
12135;SDS011;6131;56.420;15.548;2023-03-24T03:14:57;25.03;;;7.77;;
12135;SDS011;6131;56.420;15.548;2023-03-24T03:20:13;43.33;;;10.17;;
12135;SDS011;6131;56.420;15.548;2023-03-24T03:22:47;33.23;;;10.70;;
12135;SDS011;6131;56.420;15.548;2023-03-24T03:25:17;33.77;;;11.30;;
12135;SDS011;6131;56.420;15.548;2023-03-24T03:27:44;34.57;;;10.63;;
12135;SDS011;6131;56.420;15.548;2023-03-24T03:30:21;41.10;;;12.47;;
12135;SDS011;6131;56.420;15.548;2023-03-24T03:32:54;32.93;;;11.53;;
12135;SDS011;6131;56.420;15.548;2023-03-24T03:35:43;37.20;;;12.40;;
12135;SDS011;6131;56.420;15.548;2023-03-24T03:38:18;40.63;;;9.47;;
12135;SDS011;6131;56.420;15.548;2023-03-24T03:40:50;39.60;;;12.37;;
12135;SDS011;6131;56.420;15.548;2023-03-24T03:43:18;35.37;;;12.20;;
12135;SDS011;6131;56.420;15.548;2023-03-24T03:45:44;36.13;;;14.40;;
12135;SDS011;6131;56.420;15.548;2023-03-24T03:48:10;33.13;;;12.80;;
12135;SDS011;6131;56.420;15.548;2023-03-24T03:50:37;38.20;;;13.23;;
12135;SDS011;6131;56.420;15.548;2023-03-24T03:53:04;42.83;;;13.17;;
12135;SDS011;6131;56.420;15.548;2023-03-24T03:55:30;37.30;;;13.57;;
12135;SDS011;6131;56.420;15.548;2023-03-24T03:57:58;35.33;;;13.73;;
12135;SDS011;6131;56.420;15.548;2023-03-24T04:00:24;44.80;;;13.57;;
12135;SDS011;6131;56.420;15.548;2023-03-24T04:10:56;42.87;;;14.30;;
12135;SDS011;6131;56.420;15.548;2023-03-24T04:16:26;33.23;;;14.20;;
12135;SDS011;6131;56.420;15.548;2023-03-24T04:19:02;29.10;;;11.93;;
12135;SDS011;6131;56.420;15.548;2023-03-24T04:31:49;38.30;;;14.17;;
12135;SDS011;6131;56.420;15.548;2023-03-24T04:34:27;36.90;;;15.00;;
12135;SDS011;6131;56.420;15.548;2023-03-24T04:37:29;34.07;;;14.90;;
12135;SDS011;6131;56.420;15.548;2023-03-24T04:39:47;37.37;;;15.03;;
12135;SDS011;6131;56.420;15.548;2023-03-24T04:42:18;44.83;;;15.23;;
12135;SDS011;6131;56.420;15.548;2023-03-24T04:44:46;51.53;;;16.20;;
12135;SDS011;6131;56.420;15.548;2023-03-24T04:47:15;54.10;;;14.37;;
12135;SDS011;6131;56.420;15.548;2023-03-24T04:49:42;45.03;;;14.50;;
12135;SDS011;6131;56.420;15.548;2023-03-24T04:52:07;45.53;;;15.10;;
12135;SDS011;6131;56.420;15.548;2023-03-24T04:54:34;34.70;;;15.10;;
12135;SDS011;6131;56.420;15.548;2023-03-24T04:57:00;47.17;;;15.27;;
12135;SDS011;6131;56.420;15.548;2023-03-24T04:59:27;68.87;;;16.47;;
12135;SDS011;6131;56.420;15.548;2023-03-24T05:01:53;48.33;;;15.90;;
12135;SDS011;6131;56.420;15.548;2023-03-24T05:04:20;50.60;;;15.80;;
12135;SDS011;6131;56.420;15.548;2023-03-24T05:06:46;72.63;;;16.40;;
12135;SDS011;6131;56.420;15.548;2023-03-24T05:09:16;71.03;;;15.73;;
12135;SDS011;6131;56.420;15.548;2023-03-24T05:11:42;63.00;;;15.30;;
12135;SDS011;6131;56.420;15.548;2023-03-24T05:14:08;81.20;;;15.27;;
12135;SDS011;6131;56.420;15.548;2023-03-24T05:16:35;49.77;;;15.17;;
12135;SDS011;6131;56.420;15.548;2023-03-24T05:19:01;64.63;;;15.40;;
12135;SDS011;6131;56.420;15.548;2023-03-24T05:21:28;63.20;;;16.20;;
12135;SDS011;6131;56.420;15.548;2023-03-24T05:23:54;42.27;;;14.73;;
12135;SDS011;6131;56.420;15.548;2023-03-24T05:26:20;70.00;;;15.97;;
12135;SDS011;6131;56.420;15.548;2023-03-24T05:28:46;67.63;;;16.17;;
12135;SDS011;6131;56.420;15.548;2023-03-24T05:31:12;114.30;;;19.70;;
12135;SDS011;6131;56.420;15.548;2023-03-24T05:33:38;61.17;;;16.37;;
12135;SDS011;6131;56.420;15.548;2023-03-24T05:36:04;41.50;;;16.30;;
12135;SDS011;6131;56.420;15.548;2023-03-24T05:38:30;37.43;;;15.70;;
12135;SDS011;6131;56.420;15.548;2023-03-24T05:40:59;44.90;;;16.40;;
12135;SDS011;6131;56.420;15.548;2023-03-24T05:43:26;36.03;;;16.43;;
12135;SDS011;6131;56.420;15.548;2023-03-24T05:45:52;44.27;;;16.87;;
12135;SDS011;6131;56.420;15.548;2023-03-24T05:48:20;37.53;;;16.90;;
12135;SDS011;6131;56.420;15.548;2023-03-24T05:50:46;41.63;;;17.30;;
12135;SDS011;6131;56.420;15.548;2023-03-24T05:53:12;41.17;;;16.83;;
12135;SDS011;6131;56.420;15.548;2023-03-24T05:55:38;46.27;;;17.47;;
12135;SDS011;6131;56.420;15.548;2023-03-24T05:58:04;40.10;;;16.10;;
12135;SDS011;6131;56.420;15.548;2023-03-24T06:00:30;36.70;;;17.07;;
12135;SDS011;6131;56.420;15.548;2023-03-24T06:02:57;43.80;;;18.00;;
12135;SDS011;6131;56.420;15.548;2023-03-24T06:05:24;37.03;;;16.80;;
12135;SDS011;6131;56.420;15.548;2023-03-24T06:07:50;41.97;;;16.10;;
12135;SDS011;6131;56.420;15.548;2023-03-24T06:10:22;38.23;;;16.37;;
12135;SDS011;6131;56.420;15.548;2023-03-24T06:12:50;33.27;;;15.77;;
12135;SDS011;6131;56.420;15.548;2023-03-24T06:15:16;30.63;;;14.80;;
12135;SDS011;6131;56.420;15.548;2023-03-24T06:17:43;37.50;;;15.77;;
12135;SDS011;6131;56.420;15.548;2023-03-24T06:20:10;34.57;;;14.83;;
12135;SDS011;6131;56.420;15.548;2023-03-24T06:22:40;32.13;;;14.60;;
12135;SDS011;6131;56.420;15.548;2023-03-24T06:25:06;28.27;;;14.50;;
12135;SDS011;6131;56.420;15.548;2023-03-24T06:27:33;32.07;;;14.53;;
12135;SDS011;6131;56.420;15.548;2023-03-24T06:30:00;27.80;;;14.63;;
12135;SDS011;6131;56.420;15.548;2023-03-24T06:32:26;28.40;;;14.80;;
12135;SDS011;6131;56.420;15.548;2023-03-24T06:34:53;27.90;;;14.23;;
12135;SDS011;6131;56.420;15.548;2023-03-24T06:37:22;27.90;;;13.93;;
12135;SDS011;6131;56.420;15.548;2023-03-24T06:39:48;27.03;;;14.53;;
12135;SDS011;6131;56.420;15.548;2023-03-24T06:42:14;24.80;;;13.90;;
12135;SDS011;6131;56.420;15.548;2023-03-24T06:44:40;27.13;;;14.43;;
12135;SDS011;6131;56.420;15.548;2023-03-24T06:47:07;26.00;;;13.60;;
12135;SDS011;6131;56.420;15.548;2023-03-24T06:49:33;25.27;;;13.03;;
12135;SDS011;6131;56.420;15.548;2023-03-24T06:52:01;22.60;;;13.47;;
12135;SDS011;6131;56.420;15.548;2023-03-24T06:54:27;21.93;;;12.53;;
12135;SDS011;6131;56.420;15.548;2023-03-24T06:56:53;22.87;;;11.97;;
12135;SDS011;6131;56.420;15.548;2023-03-24T06:59:20;25.23;;;12.13;;
12135;SDS011;6131;56.420;15.548;2023-03-24T07:01:51;20.87;;;12.03;;
12135;SDS011;6131;56.420;15.548;2023-03-24T07:04:18;19.67;;;12.30;;
12135;SDS011;6131;56.420;15.548;2023-03-24T07:06:44;19.07;;;12.00;;
12135;SDS011;6131;56.420;15.548;2023-03-24T07:09:11;19.93;;;12.23;;
12135;SDS011;6131;56.420;15.548;2023-03-24T07:11:37;20.30;;;12.53;;
12135;SDS011;6131;56.420;15.548;2023-03-24T07:14:03;24.03;;;12.53;;
12135;SDS011;6131;56.420;15.548;2023-03-24T07:16:29;17.83;;;11.47;;
12135;SDS011;6131;56.420;15.548;2023-03-24T07:18:56;19.17;;;11.90;;
12135;SDS011;6131;56.420;15.548;2023-03-24T07:21:22;19.63;;;11.60;;
12135;SDS011;6131;56.420;15.548;2023-03-24T07:23:48;19.90;;;11.53;;
12135;SDS011;6131;56.420;15.548;2023-03-24T07:26:14;16.13;;;10.30;;
12135;SDS011;6131;56.420;15.548;2023-03-24T07:28:40;16.97;;;10.70;;
12135;SDS011;6131;56.420;15.548;2023-03-24T07:31:06;17.30;;;10.00;;
12135;SDS011;6131;56.420;15.548;2023-03-24T07:33:34;14.00;;;9.77;;
12135;SDS011;6131;56.420;15.548;2023-03-24T07:36:02;13.93;;;9.50;;
12135;SDS011;6131;56.420;15.548;2023-03-24T07:38:28;14.60;;;9.00;;
12135;SDS011;6131;56.420;15.548;2023-03-24T07:40:56;14.13;;;8.80;;
12135;SDS011;6131;56.420;15.548;2023-03-24T07:43:23;13.73;;;8.80;;
12135;SDS011;6131;56.420;15.548;2023-03-24T07:45:49;12.23;;;8.83;;
12135;SDS011;6131;56.420;15.548;2023-03-24T07:48:15;10.80;;;8.43;;
12135;SDS011;6131;56.420;15.548;2023-03-24T07:50:41;14.47;;;8.73;;
12135;SDS011;6131;56.420;15.548;2023-03-24T07:53:07;13.07;;;8.50;;
12135;SDS011;6131;56.420;15.548;2023-03-24T07:55:34;12.77;;;8.30;;
12135;SDS011;6131;56.420;15.548;2023-03-24T07:58:00;11.43;;;8.30;;
12135;SDS011;6131;56.420;15.548;2023-03-24T08:00:27;10.30;;;8.00;;
12135;SDS011;6131;56.420;15.548;2023-03-24T08:02:53;13.77;;;7.77;;
12135;SDS011;6131;56.420;15.548;2023-03-24T08:05:20;10.57;;;7.30;;
12135;SDS011;6131;56.420;15.548;2023-03-24T08:07:47;12.70;;;7.23;;
12135;SDS011;6131;56.420;15.548;2023-03-24T08:10:20;11.10;;;7.43;;
12135;SDS011;6131;56.420;15.548;2023-03-24T08:12:47;12.90;;;7.23;;
12135;SDS011;6131;56.420;15.548;2023-03-24T08:15:13;10.57;;;7.00;;
12135;SDS011;6131;56.420;15.548;2023-03-24T08:17:39;10.57;;;7.23;;
12135;SDS011;6131;56.420;15.548;2023-03-24T08:20:07;10.80;;;7.07;;
12135;SDS011;6131;56.420;15.548;2023-03-24T08:22:36;9.63;;;6.80;;
12135;SDS011;6131;56.420;15.548;2023-03-24T08:25:03;8.53;;;6.53;;
12135;SDS011;6131;56.420;15.548;2023-03-24T08:27:29;9.97;;;6.50;;
12135;SDS011;6131;56.420;15.548;2023-03-24T08:29:55;7.67;;;5.57;;
12135;SDS011;6131;56.420;15.548;2023-03-24T08:32:21;6.97;;;5.33;;
12135;SDS011;6131;56.420;15.548;2023-03-24T08:34:47;8.73;;;4.60;;
12135;SDS011;6131;56.420;15.548;2023-03-24T08:37:13;7.30;;;4.73;;
12135;SDS011;6131;56.420;15.548;2023-03-24T08:39:39;5.93;;;5.00;;
12135;SDS011;6131;56.420;15.548;2023-03-24T08:42:05;7.47;;;5.07;;
12135;SDS011;6131;56.420;15.548;2023-03-24T08:44:32;6.43;;;4.80;;
12135;SDS011;6131;56.420;15.548;2023-03-24T08:46:59;7.87;;;5.53;;
12135;SDS011;6131;56.420;15.548;2023-03-24T08:49:25;6.27;;;4.67;;
12135;SDS011;6131;56.420;15.548;2023-03-24T08:51:51;8.23;;;5.30;;
12135;SDS011;6131;56.420;15.548;2023-03-24T08:54:17;7.43;;;4.93;;
12135;SDS011;6131;56.420;15.548;2023-03-24T08:56:45;8.10;;;5.20;;
12135;SDS011;6131;56.420;15.548;2023-03-24T08:59:11;7.53;;;5.43;;
12135;SDS011;6131;56.420;15.548;2023-03-24T09:01:37;7.80;;;5.20;;
12135;SDS011;6131;56.420;15.548;2023-03-24T09:04:04;6.00;;;5.03;;
12135;SDS011;6131;56.420;15.548;2023-03-24T09:06:30;10.63;;;7.90;;
12135;SDS011;6131;56.420;15.548;2023-03-24T09:08:56;9.73;;;7.90;;
12135;SDS011;6131;56.420;15.548;2023-03-24T09:11:22;12.40;;;8.50;;
12135;SDS011;6131;56.420;15.548;2023-03-24T09:13:48;10.30;;;8.00;;
12135;SDS011;6131;56.420;15.548;2023-03-24T09:16:15;10.77;;;8.80;;
12135;SDS011;6131;56.420;15.548;2023-03-24T09:18:42;12.77;;;9.23;;
12135;SDS011;6131;56.420;15.548;2023-03-24T09:21:08;11.47;;;8.93;;
12135;SDS011;6131;56.420;15.548;2023-03-24T09:23:34;11.73;;;9.27;;
12135;SDS011;6131;56.420;15.548;2023-03-24T09:26:00;12.30;;;8.50;;
12135;SDS011;6131;56.420;15.548;2023-03-24T09:28:27;10.47;;;8.10;;
12135;SDS011;6131;56.420;15.548;2023-03-24T09:31:00;9.37;;;7.90;;
12135;SDS011;6131;56.420;15.548;2023-03-24T09:33:27;9.97;;;7.77;;
12135;SDS011;6131;56.420;15.548;2023-03-24T09:35:56;9.37;;;7.20;;
12135;SDS011;6131;56.420;15.548;2023-03-24T09:38:23;8.87;;;7.07;;
12135;SDS011;6131;56.420;15.548;2023-03-24T09:40:50;7.23;;;5.93;;
12135;SDS011;6131;56.420;15.548;2023-03-24T09:45:51;6.10;;;5.17;;
12135;SDS011;6131;56.420;15.548;2023-03-24T09:48:20;6.60;;;4.90;;
12135;SDS011;6131;56.420;15.548;2023-03-24T09:50:51;7.07;;;6.10;;
12135;SDS011;6131;56.420;15.548;2023-03-24T09:53:33;9.47;;;7.17;;
12135;SDS011;6131;56.420;15.548;2023-03-24T09:56:03;8.00;;;6.40;;
12135;SDS011;6131;56.420;15.548;2023-03-24T09:58:33;8.67;;;7.50;;
12135;SDS011;6131;56.420;15.548;2023-03-24T10:01:00;9.87;;;8.07;;
12135;SDS011;6131;56.420;15.548;2023-03-24T10:03:26;10.47;;;7.97;;
12135;SDS011;6131;56.420;15.548;2023-03-24T10:08:34;11.67;;;8.77;;
12135;SDS011;6131;56.420;15.548;2023-03-24T10:11:02;9.93;;;8.67;;
12135;SDS011;6131;56.420;15.548;2023-03-24T10:16:01;6.83;;;6.07;;
12135;SDS011;6131;56.420;15.548;2023-03-24T10:18:41;8.93;;;6.20;;
12135;SDS011;6131;56.420;15.548;2023-03-24T10:21:13;7.77;;;5.63;;
12135;SDS011;6131;56.420;15.548;2023-03-24T10:23:44;7.33;;;6.47;;
12135;SDS011;6131;56.420;15.548;2023-03-24T10:28:58;8.57;;;6.40;;
12135;SDS011;6131;56.420;15.548;2023-03-24T10:31:28;8.23;;;6.27;;
12135;SDS011;6131;56.420;15.548;2023-03-24T10:33:54;7.43;;;6.67;;
12135;SDS011;6131;56.420;15.548;2023-03-24T10:36:20;8.40;;;6.53;;
12135;SDS011;6131;56.420;15.548;2023-03-24T10:38:47;6.70;;;6.00;;
12135;SDS011;6131;56.420;15.548;2023-03-24T10:41:20;11.83;;;10.57;;
12135;SDS011;6131;56.420;15.548;2023-03-24T10:43:46;8.10;;;7.23;;
12135;SDS011;6131;56.420;15.548;2023-03-24T10:46:13;7.53;;;6.73;;
12135;SDS011;6131;56.420;15.548;2023-03-24T10:48:44;9.57;;;6.67;;
12135;SDS011;6131;56.420;15.548;2023-03-24T10:51:22;7.93;;;6.20;;
12135;SDS011;6131;56.420;15.548;2023-03-24T10:53:50;6.10;;;5.37;;
12135;SDS011;6131;56.420;15.548;2023-03-24T10:56:39;5.53;;;5.03;;
12135;SDS011;6131;56.420;15.548;2023-03-24T10:59:16;4.87;;;4.37;;
12135;SDS011;6131;56.420;15.548;2023-03-24T11:01:44;5.33;;;4.83;;
12135;SDS011;6131;56.420;15.548;2023-03-24T11:04:12;4.00;;;3.60;;
12135;SDS011;6131;56.420;15.548;2023-03-24T11:06:51;4.43;;;4.03;;
12135;SDS011;6131;56.420;15.548;2023-03-24T11:09:19;4.50;;;3.90;;
12135;SDS011;6131;56.420;15.548;2023-03-24T11:11:46;4.10;;;3.70;;
12135;SDS011;6131;56.420;15.548;2023-03-24T11:14:21;3.77;;;3.43;;
12135;SDS011;6131;56.420;15.548;2023-03-24T11:16:48;4.27;;;3.87;;
12135;SDS011;6131;56.420;15.548;2023-03-24T11:19:23;3.97;;;3.27;;
12135;SDS011;6131;56.420;15.548;2023-03-24T11:21:51;4.30;;;3.90;;
12135;SDS011;6131;56.420;15.548;2023-03-24T11:24:18;4.10;;;3.70;;
12135;SDS011;6131;56.420;15.548;2023-03-24T11:26:45;4.90;;;4.40;;
12135;SDS011;6131;56.420;15.548;2023-03-24T11:29:17;4.57;;;4.13;;
12135;SDS011;6131;56.420;15.548;2023-03-24T11:31:49;5.37;;;4.87;;
12135;SDS011;6131;56.420;15.548;2023-03-24T11:34:16;4.93;;;4.50;;
12135;SDS011;6131;56.420;15.548;2023-03-24T11:36:56;5.60;;;4.53;;
12135;SDS011;6131;56.420;15.548;2023-03-24T11:39:23;5.07;;;4.57;;
12135;SDS011;6131;56.420;15.548;2023-03-24T11:49:35;6.07;;;5.43;;
12135;SDS011;6131;56.420;15.548;2023-03-24T11:52:03;6.83;;;6.13;;
12135;SDS011;6131;56.420;15.548;2023-03-24T11:54:33;6.93;;;6.03;;
12135;SDS011;6131;56.420;15.548;2023-03-24T11:57:04;7.30;;;6.53;;
12135;SDS011;6131;56.420;15.548;2023-03-24T11:59:49;7.57;;;6.77;;
12135;SDS011;6131;56.420;15.548;2023-03-24T12:02:18;7.90;;;6.50;;
12135;SDS011;6131;56.420;15.548;2023-03-24T12:04:55;7.37;;;6.57;;
12135;SDS011;6131;56.420;15.548;2023-03-24T12:09:58;8.37;;;7.20;;
12135;SDS011;6131;56.420;15.548;2023-03-24T12:15:19;8.07;;;7.20;;
12135;SDS011;6131;56.420;15.548;2023-03-24T12:20:22;9.70;;;7.20;;
12135;SDS011;6131;56.420;15.548;2023-03-24T12:22:57;8.23;;;6.90;;
12135;SDS011;6131;56.420;15.548;2023-03-24T12:38:14;10.00;;;6.27;;
12135;SDS011;6131;56.420;15.548;2023-03-24T12:41:05;6.87;;;5.80;;
12135;SDS011;6131;56.420;15.548;2023-03-24T12:54:01;6.03;;;4.20;;
12135;SDS011;6131;56.420;15.548;2023-03-24T12:56:34;5.10;;;3.93;;
12135;SDS011;6131;56.420;15.548;2023-03-24T12:59:13;5.17;;;3.77;;
12135;SDS011;6131;56.420;15.548;2023-03-24T13:09:12;3.60;;;2.20;;
12135;SDS011;6131;56.420;15.548;2023-03-24T13:11:45;3.43;;;2.60;;
12135;SDS011;6131;56.420;15.548;2023-03-24T13:14:14;2.63;;;2.03;;
12135;SDS011;6131;56.420;15.548;2023-03-24T13:16:41;3.10;;;1.77;;
12135;SDS011;6131;56.420;15.548;2023-03-24T13:19:14;2.93;;;1.87;;
12135;SDS011;6131;56.420;15.548;2023-03-24T13:21:41;2.27;;;1.23;;
12135;SDS011;6131;56.420;15.548;2023-03-24T13:24:12;4.37;;;1.50;;
12135;SDS011;6131;56.420;15.548;2023-03-24T13:31:42;2.97;;;1.13;;
12135;SDS011;6131;56.420;15.548;2023-03-24T13:34:16;2.30;;;1.00;;
12135;SDS011;6131;56.420;15.548;2023-03-24T13:36:49;4.10;;;1.30;;
12135;SDS011;6131;56.420;15.548;2023-03-24T13:39:18;2.97;;;1.13;;
12135;SDS011;6131;56.420;15.548;2023-03-24T13:41:49;3.17;;;1.10;;
12135;SDS011;6131;56.420;15.548;2023-03-24T13:49:30;9.40;;;1.53;;
12135;SDS011;6131;56.420;15.548;2023-03-24T13:51:57;6.67;;;1.70;;
12135;SDS011;6131;56.420;15.548;2023-03-24T13:54:27;5.67;;;1.40;;
12135;SDS011;6131;56.420;15.548;2023-03-24T13:57:07;4.80;;;1.17;;
12135;SDS011;6131;56.420;15.548;2023-03-24T14:00:15;5.70;;;1.33;;
12135;SDS011;6131;56.420;15.548;2023-03-24T14:05:10;4.90;;;1.67;;
12135;SDS011;6131;56.420;15.548;2023-03-24T14:17:53;3.90;;;1.37;;
12135;SDS011;6131;56.420;15.548;2023-03-24T14:20:39;6.50;;;1.43;;
12135;SDS011;6131;56.420;15.548;2023-03-24T14:23:14;4.17;;;1.33;;
12135;SDS011;6131;56.420;15.548;2023-03-24T14:25:44;6.83;;;1.77;;
12135;SDS011;6131;56.420;15.548;2023-03-24T14:28:31;5.03;;;1.53;;
12135;SDS011;6131;56.420;15.548;2023-03-24T14:31:00;2.90;;;1.20;;
12135;SDS011;6131;56.420;15.548;2023-03-24T14:33:27;5.10;;;1.30;;
12135;SDS011;6131;56.420;15.548;2023-03-24T14:36:11;5.73;;;1.40;;
12135;SDS011;6131;56.420;15.548;2023-03-24T14:38:42;3.70;;;1.33;;
12135;SDS011;6131;56.420;15.548;2023-03-24T14:41:13;5.43;;;1.50;;
12135;SDS011;6131;56.420;15.548;2023-03-24T14:54:00;4.70;;;1.60;;
12135;SDS011;6131;56.420;15.548;2023-03-24T14:56:28;6.93;;;1.70;;
12135;SDS011;6131;56.420;15.548;2023-03-24T14:58:57;5.13;;;1.47;;
12135;SDS011;6131;56.420;15.548;2023-03-24T15:01:26;5.60;;;1.93;;
12135;SDS011;6131;56.420;15.548;2023-03-24T15:04:08;3.63;;;1.70;;
12135;SDS011;6131;56.420;15.548;2023-03-24T15:06:42;4.50;;;1.57;;
12135;SDS011;6131;56.420;15.548;2023-03-24T15:09:08;5.03;;;1.27;;
12135;SDS011;6131;56.420;15.548;2023-03-24T15:11:38;3.43;;;1.30;;
12135;SDS011;6131;56.420;15.548;2023-03-24T15:14:05;5.07;;;1.70;;
12135;SDS011;6131;56.420;15.548;2023-03-24T15:16:33;4.20;;;1.60;;
12135;SDS011;6131;56.420;15.548;2023-03-24T15:19:05;5.50;;;1.80;;
12135;SDS011;6131;56.420;15.548;2023-03-24T15:27:32;6.90;;;1.50;;
12135;SDS011;6131;56.420;15.548;2023-03-24T15:29:33;5.93;;;1.67;;
12135;SDS011;6131;56.420;15.548;2023-03-24T15:31:59;4.63;;;1.83;;
12135;SDS011;6131;56.420;15.548;2023-03-24T15:34:27;5.43;;;1.40;;
12135;SDS011;6131;56.420;15.548;2023-03-24T15:36:54;5.27;;;1.60;;
12135;SDS011;6131;56.420;15.548;2023-03-24T15:39:24;6.47;;;1.60;;
12135;SDS011;6131;56.420;15.548;2023-03-24T15:41:50;4.63;;;1.60;;
12135;SDS011;6131;56.420;15.548;2023-03-24T15:44:17;7.23;;;1.60;;
12135;SDS011;6131;56.420;15.548;2023-03-24T15:46:45;4.47;;;1.70;;
12135;SDS011;6131;56.420;15.548;2023-03-24T15:49:33;6.57;;;1.67;;
12135;SDS011;6131;56.420;15.548;2023-03-24T15:52:04;8.27;;;1.80;;
12135;SDS011;6131;56.420;15.548;2023-03-24T15:54:47;8.37;;;1.60;;
12135;SDS011;6131;56.420;15.548;2023-03-24T15:57:15;3.83;;;1.50;;
12135;SDS011;6131;56.420;15.548;2023-03-24T16:02:32;4.53;;;1.60;;
12135;SDS011;6131;56.420;15.548;2023-03-24T16:05:03;6.53;;;1.50;;
12135;SDS011;6131;56.420;15.548;2023-03-24T16:07:32;4.50;;;1.73;;
12135;SDS011;6131;56.420;15.548;2023-03-24T16:10:00;4.47;;;1.50;;
12135;SDS011;6131;56.420;15.548;2023-03-24T16:12:36;7.13;;;1.87;;
12135;SDS011;6131;56.420;15.548;2023-03-24T16:15:03;9.03;;;1.80;;
12135;SDS011;6131;56.420;15.548;2023-03-24T16:17:32;8.43;;;2.03;;
12135;SDS011;6131;56.420;15.548;2023-03-24T16:19:59;6.87;;;1.80;;
12135;SDS011;6131;56.420;15.548;2023-03-24T16:22:25;8.77;;;1.70;;
12135;SDS011;6131;56.420;15.548;2023-03-24T16:24:51;6.17;;;1.70;;
12135;SDS011;6131;56.420;15.548;2023-03-24T16:27:17;5.40;;;1.63;;
12135;SDS011;6131;56.420;15.548;2023-03-24T16:29:43;6.30;;;2.20;;
12135;SDS011;6131;56.420;15.548;2023-03-24T16:32:09;7.93;;;1.87;;
12135;SDS011;6131;56.420;15.548;2023-03-24T16:34:35;10.53;;;1.80;;
12135;SDS011;6131;56.420;15.548;2023-03-24T16:37:01;8.27;;;2.03;;
12135;SDS011;6131;56.420;15.548;2023-03-24T16:39:28;6.40;;;1.80;;
12135;SDS011;6131;56.420;15.548;2023-03-24T16:41:55;8.97;;;1.77;;
12135;SDS011;6131;56.420;15.548;2023-03-24T16:44:21;9.03;;;2.40;;
12135;SDS011;6131;56.420;15.548;2023-03-24T16:46:49;5.50;;;1.67;;
12135;SDS011;6131;56.420;15.548;2023-03-24T16:49:16;8.27;;;1.93;;
12135;SDS011;6131;56.420;15.548;2023-03-24T16:51:42;7.37;;;1.80;;
12135;SDS011;6131;56.420;15.548;2023-03-24T16:54:08;5.00;;;1.63;;
12135;SDS011;6131;56.420;15.548;2023-03-24T16:56:35;5.17;;;1.80;;
12135;SDS011;6131;56.420;15.548;2023-03-24T16:59:01;7.40;;;1.67;;
12135;SDS011;6131;56.420;15.548;2023-03-24T17:03:58;5.47;;;1.60;;
12135;SDS011;6131;56.420;15.548;2023-03-24T17:06:24;6.90;;;1.90;;
12135;SDS011;6131;56.420;15.548;2023-03-24T17:08:51;4.20;;;1.67;;
12135;SDS011;6131;56.420;15.548;2023-03-24T17:11:19;6.20;;;1.73;;
12135;SDS011;6131;56.420;15.548;2023-03-24T17:13:48;6.23;;;1.50;;
12135;SDS011;6131;56.420;15.548;2023-03-24T17:16:14;10.43;;;2.00;;
12135;SDS011;6131;56.420;15.548;2023-03-24T17:18:40;4.87;;;1.70;;
12135;SDS011;6131;56.420;15.548;2023-03-24T17:21:10;8.73;;;1.80;;
12135;SDS011;6131;56.420;15.548;2023-03-24T17:23:38;7.17;;;2.23;;